createdAt,value
2022-10-06T00:01:53.252Z,4.83
2022-10-06T00:04:19.759Z,4.67
2022-10-06T00:06:46.264Z,4.23
2022-10-06T00:09:12.744Z,4.37
2022-10-06T00:11:39.264Z,4.53
2022-10-06T00:14:06.200Z,4.47
2022-10-06T00:16:32.703Z,5.87
2022-10-06T00:18:59.279Z,4.27
2022-10-06T00:21:25.787Z,4.23
2022-10-06T00:23:52.280Z,4.50
2022-10-06T00:26:18.828Z,4.10
2022-10-06T00:28:48.494Z,4.97
2022-10-06T00:31:16.118Z,4.37
2022-10-06T00:33:42.674Z,4.40
2022-10-06T00:36:09.251Z,4.43
2022-10-06T00:38:35.936Z,4.27
2022-10-06T00:41:02.570Z,4.00
2022-10-06T00:43:56.891Z,3.93
2022-10-06T00:46:45.261Z,4.17
2022-10-06T00:49:21.398Z,4.57
2022-10-06T00:51:53.252Z,4.63
2022-10-06T00:54:19.843Z,3.90
2022-10-06T00:56:46.562Z,4.43
2022-10-06T00:59:14.644Z,4.10
2022-10-06T01:01:42.755Z,4.07
2022-10-06T01:04:10.107Z,3.90
2022-10-06T01:06:51.004Z,4.13
2022-10-06T01:09:17.516Z,3.93
2022-10-06T01:11:44.492Z,3.80
2022-10-06T01:14:11.511Z,4.70
2022-10-06T01:16:38.609Z,4.30
2022-10-06T01:19:06.552Z,4.27
2022-10-06T01:21:38.976Z,3.83
2022-10-06T01:24:05.724Z,3.80
2022-10-06T01:26:32.655Z,4.00
2022-10-06T01:28:59.183Z,4.20
2022-10-06T01:31:25.792Z,4.53
2022-10-06T01:33:53.325Z,3.93
2022-10-06T01:36:20.449Z,3.80
2022-10-06T01:38:46.973Z,4.00
2022-10-06T01:41:13.448Z,4.67
2022-10-06T01:43:40.016Z,4.20
2022-10-06T01:46:06.640Z,3.93
2022-10-06T01:48:35.569Z,3.83
2022-10-06T01:51:02.079Z,4.40
2022-10-06T01:53:28.941Z,4.00
2022-10-06T01:56:01.491Z,3.90
2022-10-06T01:58:28.303Z,4.17
2022-10-06T02:00:55.123Z,3.53
2022-10-06T02:03:21.663Z,3.73
2022-10-06T02:05:48.169Z,3.60
2022-10-06T02:08:14.720Z,3.80
2022-10-06T02:10:41.215Z,4.07
2022-10-06T02:13:07.856Z,3.83
2022-10-06T02:15:34.450Z,3.70
2022-10-06T02:18:01.035Z,3.93
2022-10-06T02:20:27.527Z,4.93
2022-10-06T02:22:54.022Z,3.73
2022-10-06T02:25:20.514Z,4.27
2022-10-06T02:27:47.531Z,4.13
2022-10-06T02:30:16.975Z,3.40
2022-10-06T02:32:44.047Z,3.47
2022-10-06T02:35:12.773Z,3.63
2022-10-06T02:37:40.381Z,3.00
2022-10-06T02:40:07.924Z,3.50
2022-10-06T02:42:37.662Z,3.60
2022-10-06T02:45:06.721Z,3.57
2022-10-06T02:47:34.467Z,3.97
2022-10-06T02:50:02.007Z,3.57
2022-10-06T02:52:35.351Z,3.67
2022-10-06T02:55:05.091Z,3.53
2022-10-06T02:57:31.638Z,3.50
2022-10-06T02:59:58.161Z,3.93
2022-10-06T03:02:24.748Z,3.30
2022-10-06T03:04:51.403Z,3.73
2022-10-06T03:07:18.025Z,3.20
2022-10-06T03:09:44.571Z,3.37
2022-10-06T03:12:11.036Z,3.30
2022-10-06T03:14:37.527Z,3.37
2022-10-06T03:17:04.041Z,3.33
2022-10-06T03:19:30.533Z,3.37
2022-10-06T03:21:57.079Z,3.60
2022-10-06T03:24:23.576Z,3.37
2022-10-06T03:26:50.055Z,3.87
2022-10-06T03:29:16.610Z,2.90
2022-10-06T03:31:43.402Z,3.37
2022-10-06T03:34:10.048Z,3.30
2022-10-06T03:36:36.592Z,3.50
2022-10-06T03:39:04.015Z,3.13
2022-10-06T03:41:32.164Z,3.03
2022-10-06T03:43:59.184Z,3.43
2022-10-06T03:46:27.215Z,3.53
2022-10-06T03:48:53.763Z,3.40
2022-10-06T03:51:27.137Z,3.10
2022-10-06T03:53:53.844Z,3.50
2022-10-06T03:56:30.908Z,3.10
2022-10-06T03:58:59.776Z,3.50
2022-10-06T04:01:36.925Z,3.20
2022-10-06T04:04:03.647Z,3.03
2022-10-06T04:06:31.337Z,3.30
2022-10-06T04:08:58.107Z,3.13
2022-10-06T04:11:32.496Z,3.40
2022-10-06T04:14:06.277Z,3.23
2022-10-06T04:16:40.202Z,3.07
2022-10-06T04:19:09.949Z,3.07
2022-10-06T04:21:37.095Z,3.13
2022-10-06T04:24:03.934Z,2.93
2022-10-06T04:26:31.977Z,3.50
2022-10-06T04:28:58.516Z,2.80
2022-10-06T04:31:26.175Z,3.23
2022-10-06T04:33:56.997Z,3.07
2022-10-06T04:36:24.877Z,3.20
2022-10-06T04:38:54.047Z,2.97
2022-10-06T04:41:20.719Z,3.13
2022-10-06T04:43:47.548Z,3.30
2022-10-06T04:46:40.975Z,3.03
2022-10-06T04:49:00.795Z,3.00
2022-10-06T04:51:27.408Z,2.80
2022-10-06T04:53:53.956Z,2.80
2022-10-06T04:56:24.305Z,3.20
2022-10-06T04:58:51.766Z,3.40
2022-10-06T05:01:20.607Z,3.73
2022-10-06T05:03:47.935Z,3.20
2022-10-06T05:06:22.207Z,2.90
2022-10-06T05:09:21.920Z,3.00
2022-10-06T05:11:48.391Z,3.20
2022-10-06T05:14:14.884Z,8.93
2022-10-06T05:16:43.100Z,4.93
2022-10-06T05:19:09.730Z,4.03
2022-10-06T05:21:36.560Z,3.50
2022-10-06T05:24:03.513Z,4.63
2022-10-06T05:26:33.139Z,3.90
2022-10-06T05:28:59.655Z,3.10
2022-10-06T05:31:27.884Z,4.00
2022-10-06T05:33:55.238Z,3.83
2022-10-06T05:36:23.679Z,3.60
2022-10-06T05:38:50.211Z,3.83
2022-10-06T05:41:20.254Z,4.70
2022-10-06T05:43:47.008Z,9.70
2022-10-06T05:46:20.207Z,8.57
2022-10-06T05:48:51.667Z,7.70
2022-10-06T05:51:19.129Z,7.37
2022-10-06T05:53:45.734Z,6.60
2022-10-06T05:56:16.644Z,6.60
2022-10-06T05:58:44.679Z,8.27
2022-10-06T06:01:11.988Z,9.03
2022-10-06T06:03:39.303Z,6.70
2022-10-06T06:06:15.428Z,9.00
2022-10-06T06:08:41.903Z,9.23
2022-10-06T06:11:08.536Z,8.63
2022-10-06T06:13:35.492Z,7.43
2022-10-06T06:16:04.218Z,7.00
2022-10-06T06:18:32.361Z,5.73
2022-10-06T06:21:03.659Z,7.93
2022-10-06T06:23:40.797Z,8.97
2022-10-06T06:26:09.066Z,6.50
2022-10-06T06:28:36.996Z,8.40
2022-10-06T06:31:07.498Z,12.47
2022-10-06T06:33:35.696Z,6.97
2022-10-06T06:36:03.334Z,6.83
2022-10-06T06:38:32.056Z,7.13
2022-10-06T06:40:59.048Z,8.53
2022-10-06T06:43:25.772Z,8.40
2022-10-06T06:45:52.447Z,5.23
2022-10-06T06:48:18.946Z,6.93
2022-10-06T06:50:45.824Z,5.37
2022-10-06T06:53:16.270Z,6.07
2022-10-06T06:55:52.252Z,7.70
2022-10-06T06:58:19.560Z,7.90
2022-10-06T07:00:46.139Z,9.30
2022-10-06T07:03:13.877Z,8.83
2022-10-06T07:05:40.468Z,7.63
2022-10-06T07:08:10.244Z,8.10
2022-10-06T07:10:37.169Z,8.40
2022-10-06T07:13:04.507Z,11.50
2022-10-06T07:15:49.452Z,5.20
2022-10-06T07:18:36.228Z,6.77
2022-10-06T07:21:21.425Z,7.70
2022-10-06T07:24:06.845Z,6.93
2022-10-06T07:26:33.344Z,6.83
2022-10-06T07:29:02.612Z,7.87
2022-10-06T07:31:33.605Z,8.13
2022-10-06T07:34:00.925Z,6.13
2022-10-06T07:36:27.476Z,4.93
2022-10-06T07:38:54.076Z,7.07
2022-10-06T07:41:21.043Z,9.80
2022-10-06T07:43:47.603Z,5.73
2022-10-06T07:46:14.207Z,5.43
2022-10-06T07:48:40.808Z,5.90
2022-10-06T07:51:14.951Z,7.40
2022-10-06T07:53:41.524Z,5.80
2022-10-06T07:56:08.347Z,4.77
2022-10-06T07:58:35.039Z,4.67
2022-10-06T08:01:06.390Z,5.63
2022-10-06T08:03:33.118Z,5.97
2022-10-06T08:06:00.627Z,7.13
2022-10-06T08:08:27.238Z,4.90
2022-10-06T08:10:54.788Z,4.17
2022-10-06T08:13:21.466Z,4.67
2022-10-06T08:15:50.360Z,4.17
2022-10-06T08:18:41.014Z,5.13
2022-10-06T08:21:13.889Z,5.77
2022-10-06T08:23:42.279Z,4.87
2022-10-06T08:26:10.373Z,7.20
2022-10-06T08:28:37.589Z,7.57
2022-10-06T08:31:08.009Z,6.03
2022-10-06T08:33:36.020Z,4.57
2022-10-06T08:36:06.608Z,5.07
2022-10-06T08:38:33.117Z,4.60
2022-10-06T08:40:59.834Z,5.03
2022-10-06T08:43:26.315Z,4.67
2022-10-06T08:45:59.721Z,7.23
2022-10-06T08:48:29.987Z,6.53
2022-10-06T08:51:12.896Z,7.33
2022-10-06T08:53:47.051Z,4.83
2022-10-06T08:56:27.516Z,5.70
2022-10-06T08:59:04.583Z,5.27
2022-10-06T09:01:38.926Z,4.30
2022-10-06T09:04:07.684Z,5.53
2022-10-06T09:07:11.796Z,4.67
2022-10-06T09:10:03.286Z,7.17
2022-10-06T09:12:36.846Z,4.50
2022-10-06T09:15:15.394Z,5.27
2022-10-06T09:17:50.656Z,4.43
2022-10-06T09:20:20.655Z,4.90
2022-10-06T09:22:47.831Z,3.93
2022-10-06T09:25:16.403Z,4.33
2022-10-06T09:27:43.928Z,4.07
2022-10-06T09:30:13.598Z,4.03
2022-10-06T09:32:43.351Z,5.73
2022-10-06T09:35:18.359Z,7.00
2022-10-06T09:38:08.559Z,5.47
2022-10-06T09:40:51.622Z,5.07
2022-10-06T09:43:21.968Z,4.77
2022-10-06T09:45:49.323Z,5.20
2022-10-06T09:48:25.133Z,5.13
2022-10-06T09:51:17.615Z,7.60
2022-10-06T09:54:11.134Z,6.20
2022-10-06T09:56:41.985Z,7.53
2022-10-06T09:59:29.609Z,8.23
2022-10-06T10:01:56.165Z,7.37
2022-10-06T10:04:25.759Z,7.90
2022-10-06T10:06:52.430Z,6.60
2022-10-06T10:09:26.388Z,8.07
2022-10-06T10:12:21.900Z,6.47
2022-10-06T10:14:48.438Z,7.10
2022-10-06T10:17:19.098Z,9.37
2022-10-06T10:19:47.366Z,6.63
2022-10-06T10:22:40.424Z,7.73
2022-10-06T10:25:10.067Z,5.50
2022-10-06T10:27:58.305Z,6.37
2022-10-06T10:30:24.895Z,6.07
2022-10-06T10:33:49.637Z,4.80
2022-10-06T10:36:37.975Z,5.00
2022-10-06T10:39:05.917Z,5.57
2022-10-06T10:41:38.151Z,6.27
2022-10-06T10:44:10.140Z,8.63
2022-10-06T10:46:39.569Z,5.27
2022-10-06T10:49:22.845Z,4.87
2022-10-06T10:51:52.410Z,4.50
2022-10-06T10:54:21.408Z,4.53
2022-10-06T10:56:49.147Z,5.83
2022-10-06T10:59:19.565Z,5.83
2022-10-06T11:02:13.791Z,5.23
2022-10-06T11:04:42.966Z,4.10
2022-10-06T11:07:30.609Z,4.73
2022-10-06T11:10:23.111Z,3.80
2022-10-06T11:13:27.001Z,3.73
2022-10-06T11:16:08.781Z,6.20
2022-10-06T11:19:12.521Z,5.00
2022-10-06T11:21:58.765Z,5.57
2022-10-06T11:24:51.276Z,5.27
2022-10-06T11:27:42.145Z,5.43
2022-10-06T11:30:18.272Z,7.20
2022-10-06T11:33:02.941Z,7.80
2022-10-06T11:35:35.154Z,3.40
2022-10-06T11:38:13.765Z,4.17
2022-10-06T11:40:55.921Z,4.60
2022-10-06T11:43:39.540Z,4.03
2022-10-06T11:46:31.797Z,3.57
2022-10-06T11:49:30.202Z,4.10
2022-10-06T11:51:59.703Z,4.00
2022-10-06T11:54:40.081Z,4.37
2022-10-06T11:57:30.856Z,3.63
2022-10-06T12:00:04.036Z,4.27
2022-10-06T12:02:30.547Z,5.10
2022-10-06T12:05:35.072Z,4.97
2022-10-06T12:07:59.132Z,5.37
2022-10-06T12:10:28.740Z,3.13
2022-10-06T12:13:39.987Z,4.50
2022-10-06T12:19:19.281Z,4.70
2022-10-06T12:22:09.981Z,3.87
2022-10-06T12:24:45.155Z,3.17
2022-10-06T12:27:26.351Z,5.27
2022-10-06T12:29:58.733Z,3.57
2022-10-06T12:32:54.887Z,5.47
2022-10-06T12:35:27.154Z,3.37
2022-10-06T12:38:00.475Z,3.17
2022-10-06T12:40:48.161Z,4.90
2022-10-06T12:43:14.576Z,4.80
2022-10-06T12:45:46.122Z,7.00
2022-10-06T12:48:36.941Z,4.40
2022-10-06T12:51:23.336Z,5.87
2022-10-06T12:54:03.490Z,3.17
2022-10-06T12:56:32.446Z,6.07
2022-10-06T12:58:59.087Z,5.47
2022-10-06T13:01:26.048Z,4.13
2022-10-06T13:03:52.999Z,5.70
2022-10-06T13:06:21.449Z,7.17
2022-10-06T13:09:02.389Z,5.53
2022-10-06T13:11:29.682Z,5.07
2022-10-06T13:14:29.012Z,4.93
2022-10-06T13:16:57.531Z,4.87
2022-10-06T13:19:26.816Z,6.50
2022-10-06T13:21:53.584Z,6.50
2022-10-06T13:24:25.176Z,5.70
2022-10-06T13:26:51.775Z,4.77
2022-10-06T13:29:24.135Z,14.03
2022-10-06T13:31:53.024Z,7.63
2022-10-06T13:34:34.667Z,8.80
2022-10-06T13:37:01.408Z,11.37
2022-10-06T13:39:31.674Z,5.13
2022-10-06T13:42:00.500Z,10.90
2022-10-06T13:44:43.864Z,8.30
2022-10-06T13:47:18.242Z,6.83
2022-10-06T13:49:49.700Z,9.60
2022-10-06T13:52:21.383Z,12.10
2022-10-06T13:54:51.930Z,7.97
2022-10-06T13:57:38.071Z,21.23
2022-10-06T14:00:05.483Z,27.03
2022-10-06T14:02:35.242Z,18.27
2022-10-06T14:05:20.305Z,27.13
2022-10-06T14:07:47.546Z,23.50
2022-10-06T14:10:18.187Z,14.57
2022-10-06T14:12:45.511Z,19.80
2022-10-06T14:15:30.727Z,24.30
2022-10-06T14:17:59.217Z,19.20
2022-10-06T14:20:42.341Z,22.57
2022-10-06T14:23:43.038Z,23.00
2022-10-06T14:26:12.648Z,13.63
2022-10-06T14:28:40.911Z,19.00
2022-10-06T14:31:11.977Z,19.13
2022-10-06T14:33:40.683Z,14.50
2022-10-06T14:36:19.101Z,16.57
2022-10-06T14:38:49.785Z,14.50
2022-10-06T14:41:19.104Z,14.93
2022-10-06T14:43:47.391Z,13.50
2022-10-06T14:46:14.780Z,15.43
2022-10-06T14:48:41.367Z,9.77
2022-10-06T14:51:07.919Z,7.97
2022-10-06T14:53:34.555Z,12.73
2022-10-06T14:56:09.865Z,18.17
2022-10-06T14:58:38.079Z,16.30
2022-10-06T15:01:05.983Z,14.00
2022-10-06T15:03:32.598Z,14.60
2022-10-06T15:06:25.983Z,16.00
2022-10-06T15:08:52.983Z,11.07
2022-10-06T15:11:20.244Z,6.03
2022-10-06T15:13:47.259Z,16.57
2022-10-06T15:16:16.928Z,12.27
2022-10-06T15:18:43.824Z,10.33
2022-10-06T15:21:11.240Z,9.43
2022-10-06T15:23:40.889Z,10.40
2022-10-06T15:26:25.737Z,12.20
2022-10-06T15:29:01.433Z,9.50
2022-10-06T15:31:29.781Z,8.37
2022-10-06T15:33:56.422Z,12.07
2022-10-06T15:36:24.308Z,10.90
2022-10-06T15:38:51.600Z,7.50
2022-10-06T15:41:18.604Z,6.93
2022-10-06T15:43:57.514Z,10.37
2022-10-06T15:46:35.207Z,9.93
2022-10-06T15:49:05.771Z,7.70
2022-10-06T15:51:34.967Z,9.70
2022-10-06T15:54:01.436Z,18.03
2022-10-06T15:56:28.824Z,8.00
2022-10-06T15:58:55.448Z,9.40
2022-10-06T16:01:26.489Z,10.13
2022-10-06T16:03:53.535Z,7.87
2022-10-06T16:06:39.900Z,8.37
2022-10-06T16:09:12.754Z,7.13
2022-10-06T16:11:39.280Z,7.13
2022-10-06T16:14:06.724Z,7.23
2022-10-06T16:16:33.506Z,7.30
2022-10-06T16:19:02.167Z,6.93
2022-10-06T16:21:30.092Z,4.50
2022-10-06T16:23:57.123Z,9.23
2022-10-06T16:26:23.959Z,7.43
2022-10-06T16:28:50.823Z,5.23
2022-10-06T16:31:18.330Z,6.43
2022-10-06T16:33:45.261Z,4.77
2022-10-06T16:36:12.675Z,6.37
2022-10-06T16:38:39.174Z,9.47
2022-10-06T16:41:05.823Z,4.90
2022-10-06T16:43:36.457Z,5.20
2022-10-06T16:46:07.278Z,5.33
2022-10-06T16:48:35.143Z,4.90
2022-10-06T16:51:06.293Z,5.20
2022-10-06T16:53:49.636Z,4.87
2022-10-06T16:56:20.842Z,6.83
2022-10-06T16:58:49.045Z,6.37
2022-10-06T17:01:15.856Z,6.77
2022-10-06T17:03:42.482Z,6.57
2022-10-06T17:06:11.701Z,5.30
2022-10-06T17:08:38.416Z,6.07
2022-10-06T17:11:10.850Z,9.27
2022-10-06T17:13:38.496Z,11.10
2022-10-06T17:16:06.981Z,7.43
2022-10-06T17:18:33.547Z,8.73
2022-10-06T17:21:01.302Z,8.70
2022-10-06T17:23:28.276Z,11.13
2022-10-06T17:26:03.859Z,8.83
2022-10-06T17:28:30.597Z,7.23
2022-10-06T17:30:59.824Z,8.63
2022-10-06T17:33:28.032Z,8.50
2022-10-06T17:35:54.644Z,14.67
2022-10-06T17:38:21.204Z,9.07
2022-10-06T17:40:47.748Z,11.87
2022-10-06T17:43:14.250Z,9.37
2022-10-06T17:45:40.831Z,13.57
2022-10-06T17:48:07.407Z,9.00
2022-10-06T17:50:33.903Z,9.67
2022-10-06T17:53:01.126Z,8.13
2022-10-06T17:55:28.015Z,11.57
2022-10-06T17:57:58.430Z,14.20
2022-10-06T18:00:25.474Z,17.63
2022-10-06T18:02:56.978Z,14.87
2022-10-06T18:05:24.042Z,15.90
2022-10-06T18:07:50.603Z,14.13
2022-10-06T18:10:35.549Z,18.17
2022-10-06T18:13:02.030Z,13.73
2022-10-06T18:15:28.905Z,17.43
2022-10-06T18:17:55.510Z,17.17
2022-10-06T18:20:22.040Z,22.43
2022-10-06T18:22:48.566Z,21.77
2022-10-06T18:25:16.822Z,22.43
2022-10-06T18:27:43.870Z,19.13
2022-10-06T18:30:10.948Z,18.07
2022-10-06T18:38:10.436Z,18.83
2022-10-06T18:40:36.949Z,18.73
2022-10-06T18:43:03.751Z,19.23
2022-10-06T18:45:48.902Z,20.67
2022-10-06T18:48:34.152Z,21.50
2022-10-06T18:51:01.463Z,22.93
2022-10-06T18:53:27.994Z,20.20
2022-10-06T18:55:54.479Z,18.30
2022-10-06T18:58:20.976Z,20.83
2022-10-06T19:00:48.169Z,19.50
2022-10-06T19:03:14.664Z,21.57
2022-10-06T19:05:51.040Z,22.20
2022-10-06T19:08:17.545Z,22.33
2022-10-06T19:11:03.989Z,23.63
2022-10-06T19:13:30.492Z,21.00
2022-10-06T19:15:57.671Z,22.17
2022-10-06T19:18:24.299Z,20.37
2022-10-06T19:20:51.303Z,25.67
2022-10-06T19:23:17.795Z,22.43
2022-10-06T19:25:44.293Z,20.17
2022-10-06T19:28:10.909Z,20.70
2022-10-06T19:30:37.569Z,27.43
2022-10-06T19:33:04.730Z,20.27
2022-10-06T19:35:31.228Z,23.23
2022-10-06T19:37:58.566Z,20.30
2022-10-06T19:40:25.091Z,21.80
2022-10-06T19:42:51.832Z,25.40
2022-10-06T19:45:19.008Z,20.20
2022-10-06T19:47:46.450Z,17.43
2022-10-06T19:50:13.648Z,16.17
2022-10-06T19:52:42.967Z,20.73
2022-10-06T19:55:09.503Z,17.80
2022-10-06T19:57:36.039Z,20.40
2022-10-06T20:00:02.743Z,21.03
2022-10-06T20:02:29.313Z,17.43
2022-10-06T20:04:56.250Z,21.20
2022-10-06T20:07:25.522Z,19.53
2022-10-06T20:09:52.030Z,21.07
2022-10-06T20:12:22.257Z,19.13
2022-10-06T20:14:51.360Z,22.60
2022-10-06T20:17:17.936Z,20.70
2022-10-06T20:19:46.501Z,18.83
2022-10-06T20:22:13.255Z,23.13
2022-10-06T20:24:39.751Z,16.10
2022-10-06T20:27:06.212Z,19.93
2022-10-06T20:29:32.868Z,17.63
2022-10-06T20:31:59.427Z,18.77
2022-10-06T20:34:31.503Z,20.90
2022-10-06T20:37:02.392Z,17.97
2022-10-06T20:39:49.042Z,16.93
2022-10-06T20:42:15.710Z,22.07
2022-10-06T20:44:42.767Z,19.60
2022-10-06T20:47:10.636Z,20.57
2022-10-06T20:49:37.241Z,16.17
2022-10-06T20:52:04.505Z,18.17
2022-10-06T20:54:34.655Z,16.03
2022-10-06T20:57:02.799Z,20.77
2022-10-06T20:59:29.927Z,18.67
2022-10-06T21:01:59.814Z,16.73
2022-10-06T21:04:29.398Z,19.03
2022-10-06T21:06:55.913Z,16.90
2022-10-06T21:09:24.172Z,19.80
2022-10-06T21:11:50.654Z,18.97
2022-10-06T21:14:17.590Z,17.20
2022-10-06T21:16:44.877Z,14.20
2022-10-06T21:19:14.471Z,15.47
2022-10-06T21:21:41.618Z,16.77
2022-10-06T21:24:10.886Z,17.07
2022-10-06T21:26:38.617Z,15.50
2022-10-06T21:29:05.270Z,16.90
2022-10-06T21:31:33.066Z,17.90
2022-10-06T21:34:01.214Z,17.10
2022-10-06T21:36:28.167Z,17.83
2022-10-06T21:38:55.812Z,14.43
2022-10-06T21:41:29.506Z,17.17
2022-10-06T21:43:56.894Z,17.03
2022-10-06T21:46:28.444Z,15.43
2022-10-06T21:48:56.347Z,17.73
2022-10-06T21:51:25.959Z,14.83
2022-10-06T21:53:52.595Z,13.87
2022-10-06T21:56:19.430Z,12.23
2022-10-06T21:58:52.769Z,15.93
2022-10-06T22:01:26.401Z,16.70
2022-10-06T22:03:53.145Z,15.90
2022-10-06T22:06:19.965Z,15.97
2022-10-06T22:08:46.556Z,15.60
2022-10-06T22:11:15.067Z,14.57
2022-10-06T22:13:42.977Z,15.23
2022-10-06T22:16:10.674Z,15.17
2022-10-06T22:18:37.666Z,16.03
2022-10-06T22:21:22.814Z,13.47
2022-10-06T22:23:57.252Z,14.40
2022-10-06T22:26:23.877Z,14.37
2022-10-06T22:28:51.365Z,14.00
2022-10-06T22:31:20.948Z,13.63
2022-10-06T22:33:52.566Z,16.43
2022-10-06T22:36:19.110Z,15.67
2022-10-06T22:38:45.565Z,12.40
2022-10-06T22:41:12.562Z,13.20
2022-10-06T22:43:39.109Z,13.13
2022-10-06T22:46:06.374Z,13.07
2022-10-06T22:48:32.957Z,14.73
2022-10-06T22:50:59.638Z,13.43
2022-10-06T22:53:26.562Z,14.00
2022-10-06T22:55:53.066Z,14.50
2022-10-06T22:58:19.621Z,13.13
2022-10-06T23:00:46.240Z,13.23
2022-10-06T23:03:12.818Z,12.73
2022-10-06T23:05:39.437Z,12.50
2022-10-06T23:08:06.225Z,13.70
2022-10-06T23:10:36.379Z,11.43
2022-10-06T23:13:02.910Z,14.23
2022-10-06T23:15:29.393Z,13.47
2022-10-06T23:17:55.889Z,14.20
2022-10-06T23:20:22.358Z,11.37
2022-10-06T23:22:48.878Z,11.20
2022-10-06T23:25:15.817Z,12.70
2022-10-06T23:27:42.667Z,11.63
2022-10-06T23:30:10.042Z,12.20
2022-10-06T23:32:37.501Z,11.40
2022-10-06T23:35:04.489Z,12.20
2022-10-06T23:37:31.022Z,10.37
2022-10-06T23:39:57.592Z,12.33
2022-10-06T23:42:24.094Z,13.10
2022-10-06T23:44:50.562Z,11.50
2022-10-06T23:47:17.045Z,11.57
2022-10-06T23:49:43.609Z,8.90
2022-10-06T23:52:10.167Z,11.43
2022-10-06T23:54:36.730Z,11.43
2022-10-06T23:57:03.409Z,10.87
2022-10-06T23:59:29.953Z,11.50
